Terminal Aerodrome Forecast
Issued by NWS Bismarck, ND

Home | Current Version | Previous Version | Graphics & Text | Print | Product List | Glossary On
Versions: 1 2 3 4 5 6 7 8 9 10 11 12 13 14 15 16 17 18 19 20 21
703
FTUS43 KBIS 262342
TAFISN
TAF
KISN 262342Z 2700/2724 04009KT P6SM SCT100
     FM270100 05007KT P6SM SCT100
     FM270300 07005KT P6SM VCTS SCT090CB
     FM270600 07005KT P6SM SCT090
     FM271300 10004KT 3SM BR BKN090
     FM271500 11005KT P6SM BKN080=

USA.gov is the U.S. government's official web portal to all federal, state and local government web resources and services.